Time;durP1;ratioP1;P1;durP2;ratioP2;P2;SDS_P1;SDS_P2;PMS_P1;PMS_P2;Temp;Humidity;BMP_temperature;BMP_pressure;BME280_temperature;BME280_humidity;BME280_pressure;Samples;Min_cycle;Max_cycle;Signal;HPM_P1;HPM_P2
2022/10/19 00:00:42;;;;;;;;;;;;;;;13.09;59.90;100364.66;4335199;32;30538;-89
2022/10/19 00:03:07;;;;;;;;;;;;;;;13.41;59.92;100358.41;4347407;32;30157;-90
2022/10/19 00:05:32;;;;;;;;;;;;;;;13.50;59.93;100359.88;4347888;32;19999;-90
2022/10/19 00:08:00;;;;;;;;;;;;;;;13.26;59.91;100355.47;4335325;32;25734;-89
2022/10/19 00:10:25;;;;;;;;;;;;;;;13.16;59.91;100347.88;4348188;32;20003;-89
2022/10/19 00:12:50;;;;;;;;;;;;;;;13.02;59.90;100350.09;4347375;32;29694;-88
2022/10/19 00:15:16;;;;;;;;;;;;;;;12.71;59.88;100350.19;4349865;32;20373;-88
2022/10/19 00:17:42;;;;;;;;;;;;;;;12.83;59.90;100343.75;4349846;32;20011;-88
2022/10/19 00:20:07;;;;;;;;;;;;;;;12.68;59.89;100346.84;4338060;32;19980;-88
2022/10/19 00:22:32;;;;;;;;;;;;;;;12.43;59.88;100344.12;4351156;32;19991;-88
2022/10/19 00:24:58;;;;;;;;;;;;;;;12.59;59.88;100347.97;4364614;32;20697;-88
2022/10/19 00:27:23;;;;;;;;;;;;;;;12.71;59.88;100344.12;4350860;32;25943;-88
2022/10/19 00:29:48;;;;;;;;;;;;;;;12.93;59.90;100336.47;4350742;32;24734;-89
2022/10/19 00:32:13;;;;;;;;;;;;;;;12.83;59.89;100343.75;4338139;32;31946;-88
2022/10/19 00:34:38;;;;;;;;;;;;;;;12.86;59.89;100338.41;4338090;32;34355;-88
2022/10/19 00:37:04;;;;;;;;;;;;;;;12.84;59.89;100329.78;4351293;32;20054;-88
2022/10/19 00:39:29;;;;;;;;;;;;;;;12.74;59.89;100333.56;4351431;32;20316;-88
2022/10/19 00:41:54;;;;;;;;;;;;;;;12.44;59.87;100331.00;4350944;32;24768;-88
2022/10/19 00:44:19;;;;;;;;;;;;;;;12.70;59.89;100330.22;4351614;32;21194;-88
2022/10/19 00:46:47;;;;;;;;;;;;;;;12.88;59.89;100323.56;4366212;32;19990;-88
2022/10/19 00:49:13;;;;;;;;;;;;;;;12.87;59.89;100319.22;4353790;32;19995;-88
2022/10/19 00:51:39;;;;;;;;;;;;;;;12.88;59.90;100311.34;4352283;32;19951;-88
2022/10/19 00:54:04;;;;;;;;;;;;;;;12.95;59.90;100298.06;4352845;32;20345;-88
2022/10/19 00:56:30;;;;;;;;;;;;;;;13.14;59.91;100292.19;4352050;32;20029;-88
2022/10/19 00:58:55;;;;;;;;;;;;;;;13.04;59.91;100301.25;4351001;32;19978;-88
2022/10/19 01:01:21;;;;;;;;;;;;;;;12.97;59.90;100289.25;4338469;32;19987;-88
2022/10/19 01:03:47;;;;;;;;;;;;;;;13.09;59.90;100288.88;4351043;32;20603;-89
2022/10/19 01:06:12;;;;;;;;;;;;;;;13.22;59.91;100291.94;4338865;32;20400;-89
2022/10/19 01:08:38;;;;;;;;;;;;;;;13.26;59.91;100284.87;4338720;32;19997;-90
2022/10/19 01:11:23;;;;;;;;;;;;;;;13.21;59.91;100283.25;4350861;32;19967;-90
2022/10/19 01:13:52;;;;;;;;;;;;;;;13.58;59.94;100281.97;4338955;32;20002;-91
2022/10/19 01:16:40;;;;;;;;;;;;;;;13.66;59.94;100282.53;4351185;32;19999;-90
2022/10/19 01:19:09;;;;;;;;;;;;;;;13.85;59.95;100274.03;4330142;32;19994;-90
2022/10/19 01:21:38;;;;;;;;;;;;;;;13.76;59.94;100273.47;4350842;32;19993;-90
2022/10/19 01:24:20;;;;;;;;;;;;;;;13.92;59.95;100260.66;4338684;32;20070;-90
2022/10/19 01:27:05;;;;;;;;;;;;;;;13.83;59.95;100258.38;4338339;32;20366;-89
2022/10/19 01:29:49;;;;;;;;;;;;;;;13.94;59.95;100260.59;4353608;32;19983;-90
2022/10/19 01:32:33;;;;;;;;;;;;;;;14.09;59.97;100263.47;4351201;32;19983;-91
2022/10/19 01:35:06;;;;;;;;;;;;;;;14.15;59.96;100262.38;4351313;32;19999;-90
2022/10/19 01:37:40;;;;;;;;;;;;;;;14.24;59.96;100250.72;4338931;32;20138;-90
2022/10/19 01:40:06;;;;;;;;;;;;;;;14.38;59.98;100240.53;4338804;32;19994;-90
2022/10/19 01:42:32;;;;;;;;;;;;;;;14.31;59.97;100239.94;4350880;32;20337;-90
2022/10/19 01:45:17;;;;;;;;;;;;;;;14.51;59.98;100238.34;4338776;32;20050;-90
2022/10/19 01:47:45;;;;;;;;;;;;;;;14.53;59.98;100234.75;4351040;32;20003;-89
2022/10/19 01:50:12;;;;;;;;;;;;;;;14.56;59.99;100220.66;4350783;32;20020;-90
2022/10/19 01:52:37;;;;;;;;;;;;;;;14.58;59.99;100227.53;4338615;32;20018;-90
2022/10/19 01:55:02;;;;;;;;;;;;;;;14.74;60.00;100230.37;4338191;32;21622;-89
2022/10/19 01:57:32;;;;;;;;;;;;;;;14.71;60.00;100226.13;4350693;32;20261;-89
2022/10/19 01:59:57;;;;;;;;;;;;;;;14.62;59.98;100231.72;4338440;32;20376;-88
2022/10/19 02:02:23;;;;;;;;;;;;;;;14.90;60.00;100233.19;4350806;32;20026;-89
2022/10/19 02:04:48;;;;;;;;;;;;;;;14.70;60.00;100245.38;4338432;32;20001;-89
2022/10/19 02:07:13;;;;;;;;;;;;;;;14.83;60.00;100250.97;4338591;32;19983;-89
2022/10/19 02:09:38;;;;;;;;;;;;;;;14.81;60.01;100241.47;4338317;32;34118;-90
2022/10/19 02:12:07;;;;;;;;;;;;;;;14.75;60.00;100247.81;4339373;32;23406;-89
2022/10/19 02:14:33;;;;;;;;;;;;;;;14.47;59.98;100248.09;4353389;32;20016;-88
2022/10/19 02:17:07;;;;;;;;;;;;;;;14.67;60.00;100247.28;4351064;32;19967;-90
2022/10/19 02:19:32;;;;;;;;;;;;;;;14.51;59.98;100252.28;4343144;32;20681;-90
2022/10/19 02:21:57;;;;;;;;;;;;;;;14.54;59.99;100243.44;4338594;32;19971;-89
2022/10/19 02:24:23;;;;;;;;;;;;;;;14.35;59.98;100244.13;4350566;32;20010;-92
2022/10/19 02:26:49;;;;;;;;;;;;;;;14.41;59.98;100248.28;4338247;32;20005;-90
2022/10/19 02:29:14;;;;;;;;;;;;;;;14.37;59.97;100252.78;4350697;32;19978;-90
2022/10/19 02:31:39;;;;;;;;;;;;;;;14.36;59.97;100253.69;4337859;32;21506;-89
2022/10/19 02:34:04;;;;;;;;;;;;;;;14.29;59.97;100260.09;4337403;32;28205;-89
2022/10/19 02:36:29;;;;;;;;;;;;;;;14.17;59.96;100257.94;4337682;32;20033;-89
2022/10/19 02:38:55;;;;;;;;;;;;;;;14.16;59.97;100253.63;4337138;32;25216;-90
2022/10/19 02:41:24;;;;;;;;;;;;;;;14.24;59.96;100246.34;4350643;32;20328;-90
2022/10/19 02:44:10;;;;;;;;;;;;;;;14.22;59.97;100242.94;4338339;32;19987;-91
2022/10/19 02:46:42;;;;;;;;;;;;;;;14.21;59.97;100240.37;4350000;32;19986;-90
2022/10/19 02:49:08;;;;;;;;;;;;;;;14.24;59.97;100240.25;4350968;32;19975;-91
2022/10/19 02:51:34;;;;;;;;;;;;;;;14.24;59.97;100245.50;4338182;32;20017;-89
2022/10/19 02:53:59;;;;;;;;;;;;;;;14.45;59.98;100238.59;4350505;32;20009;-89
2022/10/19 02:56:25;;;;;;;;;;;;;;;14.31;59.97;100246.94;4350408;32;20249;-88
2022/10/19 02:58:50;;;;;;;;;;;;;;;14.25;59.96;100255.06;4350296;32;19987;-89
2022/10/19 03:01:15;;;;;;;;;;;;;;;14.21;59.97;100256.09;4349485;32;25149;-88
2022/10/19 03:03:40;;;;;;;;;;;;;;;14.25;59.96;100250.66;4337777;32;20018;-88
2022/10/19 03:06:05;;;;;;;;;;;;;;;14.19;59.97;100256.12;4349480;32;26400;-89
2022/10/19 03:08:31;;;;;;;;;;;;;;;14.00;59.95;100255.16;4349417;32;28645;-88
2022/10/19 03:10:59;;;;;;;;;;;;;;;14.30;59.97;100250.47;4349560;32;23835;-89
2022/10/19 03:13:24;;;;;;;;;;;;;;;14.41;59.99;100258.75;4350028;32;19991;-88
2022/10/19 03:15:50;;;;;;;;;;;;;;;14.40;59.98;100263.13;4337265;32;20026;-87
2022/10/19 03:18:15;;;;;;;;;;;;;;;14.35;59.98;100265.09;4349996;32;19979;-89
2022/10/19 03:20:40;;;;;;;;;;;;;;;14.42;59.98;100261.31;4337018;32;26897;-88
2022/10/19 03:23:05;;;;;;;;;;;;;;;14.51;59.98;100272.38;4337398;32;19991;-89
2022/10/19 03:25:30;;;;;;;;;;;;;;;14.47;59.98;100260.34;4337161;32;25750;-89
2022/10/19 03:27:57;;;;;;;;;;;;;;;14.59;59.99;100262.44;4350037;32;19998;-88
2022/10/19 03:30:22;;;;;;;;;;;;;;;14.65;59.99;100252.56;4338014;32;19983;-89
2022/10/19 03:32:48;;;;;;;;;;;;;;;14.68;59.99;100259.47;4350131;32;19987;-88
2022/10/19 03:35:13;;;;;;;;;;;;;;;14.69;59.99;100251.53;4338160;32;19987;-88
2022/10/19 03:37:38;;;;;;;;;;;;;;;14.77;59.99;100264.31;4365014;32;19991;-89
2022/10/19 03:40:03;;;;;;;;;;;;;;;14.64;60.00;100257.87;4365941;32;22252;-88
2022/10/19 03:42:34;;;;;;;;;;;;;;;14.70;59.99;100262.88;4374947;32;20056;-89
2022/10/19 03:44:59;;;;;;;;;;;;;;;14.74;59.99;100267.94;4353170;32;19987;-89
2022/10/19 03:47:24;;;;;;;;;;;;;;;14.62;59.98;100267.56;4363511;32;20010;-89
2022/10/19 03:49:49;;;;;;;;;;;;;;;14.46;59.98;100269.09;4350975;32;19975;-89
2022/10/19 03:52:15;;;;;;;;;;;;;;;14.55;60.00;100268.72;4351278;32;19979;-89
2022/10/19 03:54:41;;;;;;;;;;;;;;;14.61;59.99;100266.72;4339303;32;20009;-90
2022/10/19 03:57:06;;;;;;;;;;;;;;;14.77;59.99;100269.56;4339216;32;19995;-91
2022/10/19 03:59:31;;;;;;;;;;;;;;;14.63;59.98;100264.88;4351831;32;19967;-89
2022/10/19 04:01:56;;;;;;;;;;;;;;;14.66;59.99;100266.50;4365200;32;20309;-90
2022/10/19 04:04:22;;;;;;;;;;;;;;;14.71;60.00;100267.22;4365037;32;20005;-91
2022/10/19 04:06:47;;;;;;;;;;;;;;;14.68;59.99;100259.47;4339566;32;20001;-91
2022/10/19 04:09:17;;;;;;;;;;;;;;;14.67;59.99;100263.00;4339695;32;20026;-91
2022/10/19 04:11:42;;;;;;;;;;;;;;;14.69;59.98;100263.81;4340018;32;19999;-91
2022/10/19 04:14:07;;;;;;;;;;;;;;;14.56;59.99;100268.66;4339595;32;20033;-91
2022/10/19 04:16:32;;;;;;;;;;;;;;;14.53;59.98;100274.03;4339352;32;19983;-90
2022/10/19 04:18:58;;;;;;;;;;;;;;;14.72;60.00;100277.63;4351904;32;19979;-90
2022/10/19 04:21:24;;;;;;;;;;;;;;;14.74;60.00;100272.31;4339373;32;20038;-89
2022/10/19 04:23:50;;;;;;;;;;;;;;;14.63;59.98;100280.59;4339696;32;19995;-89
2022/10/19 04:26:15;;;;;;;;;;;;;;;14.59;59.99;100268.53;4339183;32;20030;-91
2022/10/19 04:28:40;;;;;;;;;;;;;;;14.61;59.99;100264.09;4351556;32;20368;-92
2022/10/19 04:31:05;;;;;;;;;;;;;;;14.38;59.97;100270.22;4339339;32;20309;-90
2022/10/19 04:33:31;;;;;;;;;;;;;;;14.32;59.97;100265.22;4351930;32;19991;-92
2022/10/19 04:36:00;;;;;;;;;;;;;;;14.23;59.97;100265.59;4340014;32;19991;-91
2022/10/19 04:38:25;;;;;;;;;;;;;;;14.22;59.96;100263.03;4339442;32;19987;-89
2022/10/19 04:40:51;;;;;;;;;;;;;;;14.20;59.97;100270.94;4351046;32;19995;-89
2022/10/19 04:43:16;;;;;;;;;;;;;;;14.17;59.96;100271.03;4351421;32;20005;-90
2022/10/19 04:45:41;;;;;;;;;;;;;;;14.24;59.96;100280.38;4351718;32;20010;-89
2022/10/19 04:48:06;;;;;;;;;;;;;;;14.39;59.97;100282.38;4338727;32;19979;-90
2022/10/19 04:50:32;;;;;;;;;;;;;;;14.15;59.96;100278.09;4351473;32;19990;-89
2022/10/19 04:52:57;;;;;;;;;;;;;;;14.21;59.97;100269.19;4364869;32;19971;-89
2022/10/19 04:55:22;;;;;;;;;;;;;;;14.10;59.97;100266.97;4351766;32;19979;-88
2022/10/19 04:57:47;;;;;;;;;;;;;;;13.95;59.96;100254.44;4351245;32;25875;-89
2022/10/19 05:00:13;;;;;;;;;;;;;;;13.86;59.94;100254.78;4364823;32;19987;-89
2022/10/19 05:02:45;;;;;;;;;;;;;;;13.68;59.94;100259.78;4353273;32;19990;-89
2022/10/19 05:05:10;;;;;;;;;;;;;;;13.69;59.94;100258.03;4342656;32;19965;-90
2022/10/19 05:07:36;;;;;;;;;;;;;;;13.50;59.93;100253.50;4364147;32;19979;-89
2022/10/19 05:10:01;;;;;;;;;;;;;;;13.40;59.92;100259.09;4352731;32;26990;-88
2022/10/19 05:12:26;;;;;;;;;;;;;;;13.38;59.93;100268.75;4350831;32;19991;-89
2022/10/19 05:14:51;;;;;;;;;;;;;;;13.38;59.92;100281.81;4350733;32;19994;-89
2022/10/19 05:17:17;;;;;;;;;;;;;;;13.43;59.93;100279.88;4338366;32;33145;-91
2022/10/19 05:19:42;;;;;;;;;;;;;;;13.44;59.93;100287.69;4350287;32;19991;-88
2022/10/19 05:22:08;;;;;;;;;;;;;;;13.46;59.93;100278.00;4350111;32;20014;-88
2022/10/19 05:24:34;;;;;;;;;;;;;;;13.51;59.93;100276.12;4362194;32;19975;-90
2022/10/19 05:26:59;;;;;;;;;;;;;;;13.54;59.93;100290.84;4337671;32;20321;-88
2022/10/19 05:29:24;;;;;;;;;;;;;;;13.63;59.93;100273.97;4337426;32;31719;-90
2022/10/19 05:31:49;;;;;;;;;;;;;;;13.68;59.93;100272.88;4338327;32;19991;-91
2022/10/19 05:34:15;;;;;;;;;;;;;;;13.69;59.94;100277.19;4337966;32;21140;-91
2022/10/19 05:36:40;;;;;;;;;;;;;;;13.63;59.93;100279.19;4338455;32;21745;-91
2022/10/19 05:39:06;;;;;;;;;;;;;;;13.49;59.93;100291.00;4338764;32;19990;-90
2022/10/19 05:41:31;;;;;;;;;;;;;;;13.62;59.93;100301.03;4338535;32;19991;-90
2022/10/19 05:43:57;;;;;;;;;;;;;;;13.57;59.94;100293.34;4351291;32;20018;-90
2022/10/19 05:46:22;;;;;;;;;;;;;;;13.63;59.93;100297.50;4338475;32;19979;-90
2022/10/19 05:48:47;;;;;;;;;;;;;;;13.63;59.93;100297.50;4351098;32;20031;-90
2022/10/19 05:51:14;;;;;;;;;;;;;;;13.70;59.94;100297.22;4365036;32;19975;-91
2022/10/19 05:53:39;;;;;;;;;;;;;;;13.82;59.95;100293.31;4350743;32;20301;-92
2022/10/19 05:56:05;;;;;;;;;;;;;;;13.85;59.94;100295.81;4338283;32;20026;-89
2022/10/19 05:58:30;;;;;;;;;;;;;;;13.92;59.95;100304.28;4364277;32;20007;-90
2022/10/19 06:00:56;;;;;;;;;;;;;;;13.79;59.94;100307.38;4338019;32;19995;-90
2022/10/19 06:03:21;;;;;;;;;;;;;;;13.85;59.94;100308.91;4350652;32;20017;-91
2022/10/19 06:05:50;;;;;;;;;;;;;;;13.89;59.95;100307.03;4338515;32;20312;-91
2022/10/19 06:08:15;;;;;;;;;;;;;;;14.01;59.95;100303.97;4338501;32;20006;-90
2022/10/19 06:10:41;;;;;;;;;;;;;;;14.12;59.96;100313.09;4351341;32;20238;-91
2022/10/19 06:13:06;;;;;;;;;;;;;;;14.20;59.97;100307.59;4338252;32;20009;-91
2022/10/19 06:15:32;;;;;;;;;;;;;;;14.24;59.96;100306.56;4338200;32;19979;-90
2022/10/19 06:17:57;;;;;;;;;;;;;;;14.31;59.97;100312.41;4350936;32;20005;-91
2022/10/19 06:20:23;;;;;;;;;;;;;;;14.33;59.96;100314.06;4338167;32;29465;-90
2022/10/19 06:22:48;;;;;;;;;;;;;;;14.33;59.96;100308.81;4351369;32;19983;-91
2022/10/19 06:25:13;;;;;;;;;;;;;;;14.46;59.97;100321.50;4339523;32;20301;-90
2022/10/19 06:27:38;;;;;;;;;;;;;;;14.36;59.97;100313.09;4340325;32;20007;-90
2022/10/19 06:30:04;;;;;;;;;;;;;;;14.49;59.99;100318.75;4342913;32;20046;-91
2022/10/19 06:32:29;;;;;;;;;;;;;;;14.48;59.98;100319.66;4349980;32;19983;-91
2022/10/19 06:34:55;;;;;;;;;;;;;;;14.61;59.99;100326.97;4352617;32;19986;-92
2022/10/19 06:37:20;;;;;;;;;;;;;;;14.58;59.99;100327.09;4350576;32;20010;-91
2022/10/19 06:39:45;;;;;;;;;;;;;;;14.66;59.99;100329.41;4350437;32;19987;-90
2022/10/19 06:42:10;;;;;;;;;;;;;;;14.69;59.99;100331.94;4337386;32;32465;-91
2022/10/19 06:44:35;;;;;;;;;;;;;;;14.76;59.99;100328.13;4338052;32;19993;-91
2022/10/19 06:47:01;;;;;;;;;;;;;;;14.81;60.00;100341.06;4337759;32;23200;-92
2022/10/19 06:49:26;;;;;;;;;;;;;;;14.83;59.99;100336.59;4338205;32;19995;-92
2022/10/19 06:51:51;;;;;;;;;;;;;;;14.90;60.00;100338.06;4338427;32;19986;-90
2022/10/19 06:54:16;;;;;;;;;;;;;;;14.84;59.99;100344.41;4350104;32;27017;-90
2022/10/19 06:56:42;;;;;;;;;;;;;;;14.88;60.00;100342.50;4350365;32;19999;-91
2022/10/19 06:59:07;;;;;;;;;;;;;;;14.92;60.00;100352.84;4337457;32;22662;-91
2022/10/19 07:01:32;;;;;;;;;;;;;;;15.08;60.01;100352.19;4337965;32;20333;-92
2022/10/19 07:03:57;;;;;;;;;;;;;;;15.06;60.01;100354.88;4337961;32;19982;-90
2022/10/19 07:06:23;;;;;;;;;;;;;;;14.95;60.01;100365.81;4350289;32;19991;-91
2022/10/19 07:08:48;;;;;;;;;;;;;;;15.09;60.00;100360.00;4338189;32;20002;-91
2022/10/19 07:11:14;;;;;;;;;;;;;;;15.18;60.02;100364.03;4337784;32;19987;-91
2022/10/19 07:13:39;;;;;;;;;;;;;;;15.09;60.01;100359.13;4350168;32;19991;-91
2022/10/19 07:16:05;;;;;;;;;;;;;;;15.12;60.01;100361.63;4350155;32;20011;-92
2022/10/19 07:18:31;;;;;;;;;;;;;;;15.00;60.00;100369.09;4339522;32;20058;-91
2022/10/19 07:20:57;;;;;;;;;;;;;;;15.15;60.01;100366.78;4339677;32;19991;-91
2022/10/19 07:23:22;;;;;;;;;;;;;;;15.25;60.03;100363.69;4352101;32;20021;-91
2022/10/19 07:25:47;;;;;;;;;;;;;;;15.39;60.02;100372.78;4364124;32;20249;-91
2022/10/19 07:28:13;;;;;;;;;;;;;;;15.29;60.02;100377.53;4339518;32;19990;-92
2022/10/19 07:30:38;;;;;;;;;;;;;;;15.46;60.03;100375.06;4339146;32;20498;-92
2022/10/19 07:33:03;;;;;;;;;;;;;;;15.45;60.03;100377.75;4339129;32;19994;-90
2022/10/19 07:35:29;;;;;;;;;;;;;;;15.47;60.04;100374.16;4339516;32;20002;-91
2022/10/19 07:37:54;;;;;;;;;;;;;;;15.62;60.04;100378.78;4339577;32;20023;-91
2022/10/19 07:40:19;;;;;;;;;;;;;;;15.76;60.04;100379.97;4365204;32;20317;-90
2022/10/19 07:42:44;;;;;;;;;;;;;;;15.77;60.05;100386.91;4339282;32;20288;-92
2022/10/19 07:45:10;;;;;;;;;;;;;;;15.95;60.06;100394.84;4352063;32;20029;-90
2022/10/19 07:47:35;;;;;;;;;;;;;;;15.85;60.05;100390.03;4339568;32;25450;-91
2022/10/19 07:50:00;;;;;;;;;;;;;;;16.00;60.07;100389.37;4352444;32;21474;-90
2022/10/19 07:52:25;;;;;;;;;;;;;;;16.19;60.07;100390.28;4353624;32;19979;-90
2022/10/19 07:54:51;;;;;;;;;;;;;;;16.34;60.08;100387.91;4347028;32;19972;-90
2022/10/19 07:57:16;;;;;;;;;;;;;;;16.52;60.08;100376.50;4361181;32;20038;-92
2022/10/19 07:59:42;;;;;;;;;;;;;;;16.72;60.10;100371.22;4340227;32;20252;-92
2022/10/19 08:02:10;;;;;;;;;;;;;;;16.64;60.10;100370.69;4339253;32;19979;-92
2022/10/19 08:04:38;;;;;;;;;;;;;;;16.76;60.10;100375.41;4339258;32;20484;-91
2022/10/19 08:07:03;;;;;;;;;;;;;;;16.98;60.11;100371.75;4339403;32;20018;-91
2022/10/19 08:09:28;;;;;;;;;;;;;;;17.15;60.13;100370.00;4338657;32;22295;-92
2022/10/19 08:11:53;;;;;;;;;;;;;;;17.26;60.13;100368.59;4350886;32;19999;-91
2022/10/19 08:14:18;;;;;;;;;;;;;;;17.33;60.13;100362.97;4351313;32;20007;-91
2022/10/19 08:16:44;;;;;;;;;;;;;;;17.51;60.14;100353.31;4339195;32;20049;-91
2022/10/19 08:19:10;;;;;;;;;;;;;;;17.62;60.15;100360.66;4339025;32;20031;-91
2022/10/19 08:21:35;;;;;;;;;;;;;;;17.77;60.16;100354.63;4351420;32;19990;-92
2022/10/19 08:24:00;;;;;;;;;;;;;;;17.94;60.17;100351.94;4365134;32;20018;-91
2022/10/19 08:26:29;;;;;;;;;;;;;;;18.02;60.16;100357.69;4365258;32;20364;-90
2022/10/19 08:29:04;;;;;;;;;;;;;;;18.16;60.18;100359.56;4351521;32;19971;-91
2022/10/19 08:31:29;;;;;;;;;;;;;;;18.35;60.18;100362.91;4351512;32;20010;-91
2022/10/19 08:33:55;;;;;;;;;;;;;;;18.33;60.18;100362.16;4364769;32;20245;-92
2022/10/19 08:36:20;;;;;;;;;;;;;;;18.44;60.19;100361.53;4338254;32;20326;-91
2022/10/19 08:38:47;;;;;;;;;;;;;;;18.67;60.20;100362.94;4364932;32;19975;-91
2022/10/19 08:41:25;;;;;;;;;;;;;;;18.71;60.21;100356.59;4339157;32;20325;-92
2022/10/19 08:43:55;;;;;;;;;;;;;;;18.70;60.21;100361.03;4351451;32;20033;-91
2022/10/19 08:46:25;;;;;;;;;;;;;;;18.73;60.20;100356.50;4339214;32;19995;-91
2022/10/19 08:48:51;;;;;;;;;;;;;;;19.02;60.22;100355.69;4351457;32;19998;-91
2022/10/19 08:51:16;;;;;;;;;;;;;;;19.17;60.23;100349.56;4351144;32;19979;-91
2022/10/19 08:53:41;;;;;;;;;;;;;;;19.31;60.24;100349.59;4351258;32;19984;-91
2022/10/19 08:56:19;;;;;;;;;;;;;;;19.44;60.24;100351.53;4350990;32;20309;-91
2022/10/19 08:59:07;;;;;;;;;;;;;;;19.53;60.25;100351.84;4364829;32;19983;-92
2022/10/19 09:01:45;;;;;;;;;;;;;;;19.69;60.25;100354.44;4345386;32;19986;-91
2022/10/19 09:04:13;;;;;;;;;;;;;;;19.77;60.27;100356.59;4351859;32;20003;-92
2022/10/19 09:06:43;;;;;;;;;;;;;;;19.90;60.26;100354.94;4351557;32;20671;-93
2022/10/19 09:09:09;;;;;;;;;;;;;;;20.05;60.27;100355.75;4351874;32;19979;-91
2022/10/19 09:11:36;;;;;;;;;;;;;;;20.18;60.29;100351.44;4351682;32;20029;-92
2022/10/19 09:14:21;;;;;;;;;;;;;;;20.34;60.29;100341.56;4352426;32;20054;-93
2022/10/19 09:16:46;;;;;;;;;;;;;;;20.48;60.30;100348.69;4341058;32;20002;-93
2022/10/19 09:19:15;;;;;;;;;;;;;;;20.55;60.31;100344.69;4347586;32;19975;-92
2022/10/19 09:21:46;;;;;;;;;;;;;;;20.63;60.31;100338.94;4349445;32;19955;-92
2022/10/19 09:24:27;;;;;;;;;;;;;;;20.63;60.31;100342.41;4339695;32;20562;-93
2022/10/19 09:26:53;;;;;;;;;;;;;;;20.71;60.31;100349.84;4364893;32;19987;-93
2022/10/19 09:29:27;;;;;;;;;;;;;;;20.87;60.32;100344.44;4339073;32;20018;-93
2022/10/19 09:31:54;;;;;;;;;;;;;;;21.04;60.32;100347.66;4351359;32;20375;-94
2022/10/19 09:34:28;;;;;;;;;;;;;;;21.21;60.34;100351.00;4338665;32;20039;-92
2022/10/19 09:36:57;;;;;;;;;;;;;;;21.23;60.33;100346.44;4338564;32;20009;-92
2022/10/19 09:39:23;;;;;;;;;;;;;;;21.08;60.32;100349.16;4351486;32;19983;-92
2022/10/19 09:41:51;;;;;;;;;;;;;;;21.09;60.34;100360.59;4338483;32;20242;-92
2022/10/19 09:44:16;;;;;;;;;;;;;;;21.04;60.33;100355.59;4338720;32;20046;-92
2022/10/19 09:46:51;;;;;;;;;;;;;;;20.96;60.32;100355.25;4337642;32;27160;-92
2022/10/19 09:49:16;;;;;;;;;;;;;;;21.02;60.33;100354.00;4338869;32;19980;-93
2022/10/19 09:51:49;;;;;;;;;;;;;;;20.69;60.31;100362.34;4338682;32;19974;-91
2022/10/19 09:54:31;;;;;;;;;;;;;;;20.88;60.32;100360.22;4339039;32;19991;-93
2022/10/19 09:56:56;;;;;;;;;;;;;;;21.01;60.33;100361.09;4338769;32;20046;-92
2022/10/19 09:59:23;;;;;;;;;;;;;;;20.96;60.33;100355.25;4339104;32;19999;-93
2022/10/19 10:01:57;;;;;;;;;;;;;;;20.74;60.31;100350.50;4338882;32;19952;-93
2022/10/19 10:04:22;;;;;;;;;;;;;;;20.60;60.30;100360.28;4351582;32;20014;-93
2022/10/19 10:06:48;;;;;;;;;;;;;;;20.67;60.31;100358.94;4338668;32;19979;-94
2022/10/19 10:09:17;;;;;;;;;;;;;;;20.75;60.32;100344.25;4338787;32;20002;-92
2022/10/19 10:11:42;;;;;;;;;;;;;;;20.78;60.31;100351.16;4338818;32;19979;-94
2022/10/19 10:14:26;;;;;;;;;;;;;;;20.95;60.33;100345.63;4338737;32;20030;-93
2022/10/19 10:16:55;;;;;;;;;;;;;;;21.13;60.33;100344.41;4351421;32;19998;-91
2022/10/19 10:19:20;;;;;;;;;;;;;;;20.99;60.32;100347.09;4351421;32;19980;-93
2022/10/19 10:21:54;;;;;;;;;;;;;;;21.04;60.33;100354.75;4338339;32;20010;-96
2022/10/19 10:24:20;;;;;;;;;;;;;;;21.06;60.33;100345.78;4351624;32;19991;-92
2022/10/19 10:26:46;;;;;;;;;;;;;;;21.18;60.34;100340.59;4364336;32;20005;-93
2022/10/19 10:29:21;;;;;;;;;;;;;;;21.24;60.33;100332.28;4338709;32;19975;-93
2022/10/19 10:31:48;;;;;;;;;;;;;;;21.20;60.34;100338.69;4338885;32;20001;-92
2022/10/19 10:34:18;;;;;;;;;;;;;;;21.23;60.34;100331.41;4336967;33;20007;-93
2022/10/19 10:36:43;;;;;;;;;;;;;;;21.22;60.33;100326.22;4336827;33;20067;-92
2022/10/19 10:39:11;;;;;;;;;;;;;;;21.16;60.33;100324.81;4338220;33;19984;-93
2022/10/19 10:41:37;;;;;;;;;;;;;;;21.31;60.34;100317.69;4340440;33;19964;-92
2022/10/19 10:44:05;;;;;;;;;;;;;;;21.35;60.35;100316.53;4360954;32;19975;-92
2022/10/19 10:46:40;;;;;;;;;;;;;;;21.26;60.35;100322.44;4344187;33;20039;-93
2022/10/19 10:49:06;;;;;;;;;;;;;;;21.35;60.35;100319.19;4336320;33;19983;-94
2022/10/19 10:51:32;;;;;;;;;;;;;;;21.25;60.35;100308.34;4336037;33;20297;-93
2022/10/19 10:54:19;;;;;;;;;;;;;;;21.32;60.34;100311.44;4336135;33;20015;-93
2022/10/19 10:57:15;;;;;;;;;;;;;;;21.30;60.34;100305.41;4336210;33;19968;-91
2022/10/19 10:59:40;;;;;;;;;;;;;;;21.15;60.33;100305.44;4340973;32;19996;-92
2022/10/19 11:02:08;;;;;;;;;;;;;;;21.33;60.35;100297.25;4349421;33;19975;-92
2022/10/19 11:04:35;;;;;;;;;;;;;;;21.45;60.35;100299.06;4349932;33;20087;-93
2022/10/19 11:07:01;;;;;;;;;;;;;;;21.37;60.35;100296.09;4336034;33;19995;-92
2022/10/19 11:09:33;;;;;;;;;;;;;;;21.35;60.35;100290.91;4335664;33;20242;-93
2022/10/19 11:12:00;;;;;;;;;;;;;;;21.33;60.36;100286.66;4335765;33;20006;-91
2022/10/19 11:14:28;;;;;;;;;;;;;;;21.18;60.35;100282.34;4335720;33;20586;-94
2022/10/19 11:16:56;;;;;;;;;;;;;;;21.17;60.35;100288.59;4347953;33;19999;-94
2022/10/19 11:19:26;;;;;;;;;;;;;;;21.24;60.34;100289.91;4348522;33;19976;-93
2022/10/19 11:22:10;;;;;;;;;;;;;;;21.26;60.35;100280.91;4335383;33;19995;-94
2022/10/19 11:24:49;;;;;;;;;;;;;;;21.31;60.35;100278.81;4348074;33;19995;-93
2022/10/19 11:27:19;;;;;;;;;;;;;;;21.38;60.35;100290.69;4336115;33;19983;-93
2022/10/19 11:29:56;;;;;;;;;;;;;;;21.43;60.35;100279.78;4348017;33;19955;-93
2022/10/19 11:32:40;;;;;;;;;;;;;;;21.07;60.34;100276.00;4348060;33;20043;-93
2022/10/19 11:35:20;;;;;;;;;;;;;;;21.23;60.34;100282.91;4348568;33;19996;-94
2022/10/19 11:38:09;;;;;;;;;;;;;;;21.41;60.36;100293.12;4335757;33;20013;-93
2022/10/19 11:40:34;;;;;;;;;;;;;;;21.08;60.33;100275.06;4341722;33;20016;-92
2022/10/19 11:43:05;;;;;;;;;;;;;;;20.92;60.33;100263.78;4348954;33;20214;-93
2022/10/19 11:45:37;;;;;;;;;;;;;;;20.91;60.33;100270.03;4335570;33;20000;-92
2022/10/19 11:48:06;;;;;;;;;;;;;;;20.94;60.33;100268.97;4335423;33;20027;-94
2022/10/19 11:50:45;;;;;;;;;;;;;;;20.87;60.34;100267.69;4347637;33;20038;-93
2022/10/19 11:53:11;;;;;;;;;;;;;;;20.61;60.31;100274.69;4347950;33;19967;-93
2022/10/19 11:55:39;;;;;;;;;;;;;;;20.47;60.31;100272.94;4347611;33;20014;-92
2022/10/19 11:58:23;;;;;;;;;;;;;;;20.56;60.31;100256.47;4347605;33;19987;-91
2022/10/19 12:00:51;;;;;;;;;;;;;;;20.50;60.31;100267.44;4349229;33;19976;-94
2022/10/19 12:03:22;;;;;;;;;;;;;;;20.47;60.31;100252.62;4335963;33;19990;-91
2022/10/19 12:06:03;;;;;;;;;;;;;;;20.71;60.32;100265.19;4350362;33;20040;-93
2022/10/19 12:08:45;;;;;;;;;;;;;;;20.60;60.31;100251.84;4355653;32;19964;-92
2022/10/19 12:11:26;;;;;;;;;;;;;;;20.59;60.31;100250.16;4345470;32;19983;-92
2022/10/19 12:14:11;;;;;;;;;;;;;;;20.75;60.32;100258.75;4337317;33;19979;-91
2022/10/19 12:16:42;;;;;;;;;;;;;;;20.64;60.32;100267.41;4349768;33;19991;-93
2022/10/19 12:19:11;;;;;;;;;;;;;;;20.38;60.30;100252.34;4337369;33;20019;-91
2022/10/19 12:21:37;;;;;;;;;;;;;;;20.36;60.30;100268.31;4337378;33;20051;-93
2022/10/19 12:24:04;;;;;;;;;;;;;;;20.10;60.29;100275.25;4337979;33;20002;-92
2022/10/19 12:26:29;;;;;;;;;;;;;;;19.77;60.28;100264.13;4337351;33;20130;-95
2022/10/19 12:28:55;;;;;;;;;;;;;;;19.93;60.28;100262.25;4337244;33;20039;-93
2022/10/19 12:31:28;;;;;;;;;;;;;;;20.07;60.28;100258.72;4337217;33;20403;-95
2022/10/19 12:33:56;;;;;;;;;;;;;;;20.14;60.29;100252.12;4336874;33;19995;-92
2022/10/19 12:36:36;;;;;;;;;;;;;;;19.99;60.28;100261.00;4336801;33;20017;-93
2022/10/19 12:39:04;;;;;;;;;;;;;;;19.75;60.27;100266.03;4337164;33;20002;-94